sensor_id;sensor_type;location;lat;lon;timestamp;P1;durP1;ratioP1;P2;durP2;ratioP2
72586;SDS011;60621;49.576;11.024;2023-07-09T00:00:00;11.95;;;7.28;;
72586;SDS011;60621;49.576;11.024;2023-07-09T00:01:01;10.68;;;7.22;;
72586;SDS011;60621;49.576;11.024;2023-07-09T00:02:03;10.02;;;6.88;;
72586;SDS011;60621;49.576;11.024;2023-07-09T00:03:05;10.07;;;7.35;;
72586;SDS011;60621;49.576;11.024;2023-07-09T00:04:10;11.00;;;7.38;;
72586;SDS011;60621;49.576;11.024;2023-07-09T00:05:13;10.68;;;7.30;;
72586;SDS011;60621;49.576;11.024;2023-07-09T00:06:16;9.52;;;6.88;;
72586;SDS011;60621;49.576;11.024;2023-07-09T00:07:27;9.80;;;7.07;;
72586;SDS011;60621;49.576;11.024;2023-07-09T00:08:31;9.45;;;6.93;;
72586;SDS011;60621;49.576;11.024;2023-07-09T00:09:32;11.77;;;7.10;;
72586;SDS011;60621;49.576;11.024;2023-07-09T00:10:35;9.38;;;6.85;;
72586;SDS011;60621;49.576;11.024;2023-07-09T00:11:36;9.23;;;6.93;;
72586;SDS011;60621;49.576;11.024;2023-07-09T00:12:38;11.27;;;7.35;;
72586;SDS011;60621;49.576;11.024;2023-07-09T00:13:39;9.07;;;6.72;;
72586;SDS011;60621;49.576;11.024;2023-07-09T00:14:41;11.02;;;7.13;;
72586;SDS011;60621;49.576;11.024;2023-07-09T00:15:43;10.82;;;7.05;;
72586;SDS011;60621;49.576;11.024;2023-07-09T00:16:45;10.68;;;7.10;;
72586;SDS011;60621;49.576;11.024;2023-07-09T00:17:50;11.15;;;7.50;;
72586;SDS011;60621;49.576;11.024;2023-07-09T00:18:52;10.18;;;7.03;;
72586;SDS011;60621;49.576;11.024;2023-07-09T00:19:53;9.30;;;7.00;;
72586;SDS011;60621;49.576;11.024;2023-07-09T00:20:55;9.07;;;6.60;;
72586;SDS011;60621;49.576;11.024;2023-07-09T00:21:56;10.40;;;7.35;;
72586;SDS011;60621;49.576;11.024;2023-07-09T00:22:58;10.10;;;6.65;;
72586;SDS011;60621;49.576;11.024;2023-07-09T00:24:00;10.30;;;7.53;;
72586;SDS011;60621;49.576;11.024;2023-07-09T00:25:07;10.02;;;7.50;;
72586;SDS011;60621;49.576;11.024;2023-07-09T00:27:17;10.23;;;7.10;;
72586;SDS011;60621;49.576;11.024;2023-07-09T00:28:20;10.23;;;7.13;;
72586;SDS011;60621;49.576;11.024;2023-07-09T00:29:22;10.60;;;7.68;;
72586;SDS011;60621;49.576;11.024;2023-07-09T00:30:23;10.38;;;8.38;;
72586;SDS011;60621;49.576;11.024;2023-07-09T00:31:25;11.57;;;7.55;;
72586;SDS011;60621;49.576;11.024;2023-07-09T00:32:27;10.27;;;7.03;;
72586;SDS011;60621;49.576;11.024;2023-07-09T00:33:29;10.48;;;7.35;;
72586;SDS011;60621;49.576;11.024;2023-07-09T00:34:33;12.23;;;8.52;;
72586;SDS011;60621;49.576;11.024;2023-07-09T00:35:34;10.27;;;7.30;;
72586;SDS011;60621;49.576;11.024;2023-07-09T00:36:36;11.23;;;8.85;;
72586;SDS011;60621;49.576;11.024;2023-07-09T00:37:37;11.50;;;7.93;;
72586;SDS011;60621;49.576;11.024;2023-07-09T00:38:39;11.35;;;7.25;;
72586;SDS011;60621;49.576;11.024;2023-07-09T00:42:11;12.00;;;8.68;;
72586;SDS011;60621;49.576;11.024;2023-07-09T00:43:16;10.45;;;7.95;;
72586;SDS011;60621;49.576;11.024;2023-07-09T00:45:31;11.40;;;7.28;;
72586;SDS011;60621;49.576;11.024;2023-07-09T00:47:39;10.50;;;7.60;;
72586;SDS011;60621;49.576;11.024;2023-07-09T00:48:48;9.35;;;6.88;;
72586;SDS011;60621;49.576;11.024;2023-07-09T00:49:56;12.38;;;7.88;;
72586;SDS011;60621;49.576;11.024;2023-07-09T00:51:08;11.75;;;7.07;;
72586;SDS011;60621;49.576;11.024;2023-07-09T00:52:19;10.18;;;7.63;;
72586;SDS011;60621;49.576;11.024;2023-07-09T00:53:26;11.10;;;7.80;;
72586;SDS011;60621;49.576;11.024;2023-07-09T00:54:36;10.52;;;7.35;;
72586;SDS011;60621;49.576;11.024;2023-07-09T00:55:42;11.70;;;7.68;;
72586;SDS011;60621;49.576;11.024;2023-07-09T00:56:47;10.13;;;6.82;;
72586;SDS011;60621;49.576;11.024;2023-07-09T00:57:53;10.25;;;7.28;;
72586;SDS011;60621;49.576;11.024;2023-07-09T00:58:59;9.15;;;6.72;;
72586;SDS011;60621;49.576;11.024;2023-07-09T01:00:07;10.23;;;7.32;;
72586;SDS011;60621;49.576;11.024;2023-07-09T01:01:16;10.43;;;7.18;;
72586;SDS011;60621;49.576;11.024;2023-07-09T01:02:20;9.90;;;7.40;;
72586;SDS011;60621;49.576;11.024;2023-07-09T01:03:28;10.63;;;7.03;;
72586;SDS011;60621;49.576;11.024;2023-07-09T01:04:34;13.02;;;8.38;;
72586;SDS011;60621;49.576;11.024;2023-07-09T01:05:38;10.55;;;8.25;;
72586;SDS011;60621;49.576;11.024;2023-07-09T01:06:44;9.95;;;7.55;;
72586;SDS011;60621;49.576;11.024;2023-07-09T01:07:48;11.23;;;9.00;;
72586;SDS011;60621;49.576;11.024;2023-07-09T01:08:49;10.80;;;7.60;;
72586;SDS011;60621;49.576;11.024;2023-07-09T01:09:54;12.32;;;8.18;;
72586;SDS011;60621;49.576;11.024;2023-07-09T01:10:57;11.80;;;9.40;;
72586;SDS011;60621;49.576;11.024;2023-07-09T01:12:00;11.63;;;7.85;;
72586;SDS011;60621;49.576;11.024;2023-07-09T01:13:02;10.25;;;7.20;;
72586;SDS011;60621;49.576;11.024;2023-07-09T01:14:04;12.40;;;7.75;;
72586;SDS011;60621;49.576;11.024;2023-07-09T01:15:08;12.00;;;8.02;;
72586;SDS011;60621;49.576;11.024;2023-07-09T01:16:12;10.07;;;7.88;;
72586;SDS011;60621;49.576;11.024;2023-07-09T01:17:14;11.63;;;7.47;;
72586;SDS011;60621;49.576;11.024;2023-07-09T01:18:15;10.90;;;8.10;;
72586;SDS011;60621;49.576;11.024;2023-07-09T01:19:21;10.98;;;7.97;;
72586;SDS011;60621;49.576;11.024;2023-07-09T01:20:26;12.88;;;8.25;;
72586;SDS011;60621;49.576;11.024;2023-07-09T01:21:28;10.02;;;7.70;;
72586;SDS011;60621;49.576;11.024;2023-07-09T01:22:29;11.15;;;8.70;;
72586;SDS011;60621;49.576;11.024;2023-07-09T01:23:31;10.70;;;8.60;;
72586;SDS011;60621;49.576;11.024;2023-07-09T01:26:10;11.30;;;8.02;;
72586;SDS011;60621;49.576;11.024;2023-07-09T01:27:13;11.15;;;7.47;;
72586;SDS011;60621;49.576;11.024;2023-07-09T01:28:15;11.23;;;7.75;;
72586;SDS011;60621;49.576;11.024;2023-07-09T01:29:17;9.80;;;8.10;;
72586;SDS011;60621;49.576;11.024;2023-07-09T01:30:22;11.57;;;8.27;;
72586;SDS011;60621;49.576;11.024;2023-07-09T01:31:30;11.32;;;8.10;;
72586;SDS011;60621;49.576;11.024;2023-07-09T01:32:32;10.43;;;7.88;;
72586;SDS011;60621;49.576;11.024;2023-07-09T01:33:34;10.85;;;8.48;;
72586;SDS011;60621;49.576;11.024;2023-07-09T01:34:36;11.02;;;8.20;;
72586;SDS011;60621;49.576;11.024;2023-07-09T01:35:38;11.20;;;8.05;;
72586;SDS011;60621;49.576;11.024;2023-07-09T01:36:44;10.45;;;8.02;;
72586;SDS011;60621;49.576;11.024;2023-07-09T01:37:45;11.45;;;7.90;;
72586;SDS011;60621;49.576;11.024;2023-07-09T01:38:47;12.40;;;8.25;;
72586;SDS011;60621;49.576;11.024;2023-07-09T01:39:50;10.57;;;8.27;;
72586;SDS011;60621;49.576;11.024;2023-07-09T01:40:52;13.07;;;8.63;;
72586;SDS011;60621;49.576;11.024;2023-07-09T01:41:54;12.23;;;8.77;;
72586;SDS011;60621;49.576;11.024;2023-07-09T01:42:56;12.70;;;7.72;;
72586;SDS011;60621;49.576;11.024;2023-07-09T01:43:59;11.40;;;8.80;;
72586;SDS011;60621;49.576;11.024;2023-07-09T01:45:01;11.00;;;8.20;;
72586;SDS011;60621;49.576;11.024;2023-07-09T01:46:05;12.90;;;8.18;;
72586;SDS011;60621;49.576;11.024;2023-07-09T01:47:06;10.98;;;8.32;;
72586;SDS011;60621;49.576;11.024;2023-07-09T01:48:08;11.20;;;8.13;;
72586;SDS011;60621;49.576;11.024;2023-07-09T01:49:15;10.68;;;8.07;;
72586;SDS011;60621;49.576;11.024;2023-07-09T01:50:18;11.13;;;7.90;;
72586;SDS011;60621;49.576;11.024;2023-07-09T01:51:19;11.48;;;8.43;;
72586;SDS011;60621;49.576;11.024;2023-07-09T01:52:21;11.88;;;8.07;;
72586;SDS011;60621;49.576;11.024;2023-07-09T01:53:24;11.63;;;8.20;;
72586;SDS011;60621;49.576;11.024;2023-07-09T01:54:28;11.93;;;8.35;;
72586;SDS011;60621;49.576;11.024;2023-07-09T01:55:31;13.35;;;8.45;;
72586;SDS011;60621;49.576;11.024;2023-07-09T01:56:32;11.18;;;8.10;;
72586;SDS011;60621;49.576;11.024;2023-07-09T01:57:35;11.02;;;8.15;;
72586;SDS011;60621;49.576;11.024;2023-07-09T01:58:37;11.18;;;8.50;;
72586;SDS011;60621;49.576;11.024;2023-07-09T01:59:43;10.27;;;7.78;;
72586;SDS011;60621;49.576;11.024;2023-07-09T02:00:45;10.95;;;7.85;;
72586;SDS011;60621;49.576;11.024;2023-07-09T02:01:46;10.13;;;7.95;;
72586;SDS011;60621;49.576;11.024;2023-07-09T02:02:48;11.50;;;8.30;;
72586;SDS011;60621;49.576;11.024;2023-07-09T02:03:50;11.35;;;8.40;;
72586;SDS011;60621;49.576;11.024;2023-07-09T02:04:52;12.63;;;8.93;;
72586;SDS011;60621;49.576;11.024;2023-07-09T02:05:57;12.35;;;8.30;;
72586;SDS011;60621;49.576;11.024;2023-07-09T02:07:01;10.98;;;7.90;;
72586;SDS011;60621;49.576;11.024;2023-07-09T02:08:03;11.93;;;8.75;;
72586;SDS011;60621;49.576;11.024;2023-07-09T02:09:05;11.43;;;7.90;;
72586;SDS011;60621;49.576;11.024;2023-07-09T02:10:08;11.00;;;8.15;;
72586;SDS011;60621;49.576;11.024;2023-07-09T02:11:10;11.80;;;8.75;;
72586;SDS011;60621;49.576;11.024;2023-07-09T02:12:11;12.07;;;8.77;;
72586;SDS011;60621;49.576;11.024;2023-07-09T02:14:15;11.45;;;9.00;;
72586;SDS011;60621;49.576;11.024;2023-07-09T02:15:17;14.13;;;8.68;;
72586;SDS011;60621;49.576;11.024;2023-07-09T02:16:19;10.70;;;8.05;;
72586;SDS011;60621;49.576;11.024;2023-07-09T02:17:20;12.48;;;8.77;;
72586;SDS011;60621;49.576;11.024;2023-07-09T02:18:22;11.43;;;8.63;;
72586;SDS011;60621;49.576;11.024;2023-07-09T02:19:23;12.45;;;8.13;;
72586;SDS011;60621;49.576;11.024;2023-07-09T02:20:24;13.02;;;8.27;;
72586;SDS011;60621;49.576;11.024;2023-07-09T02:21:27;11.65;;;8.38;;
72586;SDS011;60621;49.576;11.024;2023-07-09T02:22:31;11.38;;;8.32;;
72586;SDS011;60621;49.576;11.024;2023-07-09T02:23:32;12.82;;;8.85;;
72586;SDS011;60621;49.576;11.024;2023-07-09T02:24:34;11.05;;;8.48;;
72586;SDS011;60621;49.576;11.024;2023-07-09T02:25:35;11.38;;;8.35;;
72586;SDS011;60621;49.576;11.024;2023-07-09T02:26:37;12.27;;;8.68;;
72586;SDS011;60621;49.576;11.024;2023-07-09T02:27:38;12.80;;;8.52;;
72586;SDS011;60621;49.576;11.024;2023-07-09T02:28:40;12.20;;;8.23;;
72586;SDS011;60621;49.576;11.024;2023-07-09T02:29:51;11.40;;;9.00;;
72586;SDS011;60621;49.576;11.024;2023-07-09T02:30:52;12.43;;;8.82;;
72586;SDS011;60621;49.576;11.024;2023-07-09T02:31:55;11.73;;;8.57;;
72586;SDS011;60621;49.576;11.024;2023-07-09T02:32:58;11.90;;;8.65;;
72586;SDS011;60621;49.576;11.024;2023-07-09T02:34:00;12.32;;;8.68;;
72586;SDS011;60621;49.576;11.024;2023-07-09T02:35:01;11.93;;;8.50;;
72586;SDS011;60621;49.576;11.024;2023-07-09T02:36:03;13.98;;;8.88;;
72586;SDS011;60621;49.576;11.024;2023-07-09T02:37:05;13.13;;;9.23;;
72586;SDS011;60621;49.576;11.024;2023-07-09T02:38:06;11.55;;;8.13;;
72586;SDS011;60621;49.576;11.024;2023-07-09T02:39:09;10.65;;;7.95;;
72586;SDS011;60621;49.576;11.024;2023-07-09T02:40:11;12.82;;;8.48;;
72586;SDS011;60621;49.576;11.024;2023-07-09T02:41:14;11.20;;;8.90;;
72586;SDS011;60621;49.576;11.024;2023-07-09T02:42:16;12.60;;;9.07;;
72586;SDS011;60621;49.576;11.024;2023-07-09T02:43:19;14.57;;;8.48;;
72586;SDS011;60621;49.576;11.024;2023-07-09T02:44:20;13.18;;;9.48;;
72586;SDS011;60621;49.576;11.024;2023-07-09T02:45:22;13.13;;;8.40;;
72586;SDS011;60621;49.576;11.024;2023-07-09T02:46:23;10.00;;;7.65;;
72586;SDS011;60621;49.576;11.024;2023-07-09T02:47:25;12.57;;;8.95;;
72586;SDS011;60621;49.576;11.024;2023-07-09T02:48:26;10.48;;;7.85;;
72586;SDS011;60621;49.576;11.024;2023-07-09T02:49:28;11.55;;;8.30;;
72586;SDS011;60621;49.576;11.024;2023-07-09T02:50:29;11.45;;;8.30;;
72586;SDS011;60621;49.576;11.024;2023-07-09T02:51:31;11.98;;;8.80;;
72586;SDS011;60621;49.576;11.024;2023-07-09T02:52:32;11.90;;;8.80;;
72586;SDS011;60621;49.576;11.024;2023-07-09T02:53:34;11.95;;;8.50;;
72586;SDS011;60621;49.576;11.024;2023-07-09T02:54:36;12.43;;;8.95;;
72586;SDS011;60621;49.576;11.024;2023-07-09T02:55:37;12.60;;;8.43;;
72586;SDS011;60621;49.576;11.024;2023-07-09T02:56:39;12.30;;;8.63;;
72586;SDS011;60621;49.576;11.024;2023-07-09T02:57:40;10.75;;;8.00;;
72586;SDS011;60621;49.576;11.024;2023-07-09T02:58:42;11.05;;;7.88;;
72586;SDS011;60621;49.576;11.024;2023-07-09T02:59:43;11.70;;;8.27;;
72586;SDS011;60621;49.576;11.024;2023-07-09T03:00:48;12.80;;;8.88;;
72586;SDS011;60621;49.576;11.024;2023-07-09T03:01:53;11.20;;;7.70;;
72586;SDS011;60621;49.576;11.024;2023-07-09T03:02:55;12.82;;;8.45;;
72586;SDS011;60621;49.576;11.024;2023-07-09T03:03:57;11.52;;;9.02;;
72586;SDS011;60621;49.576;11.024;2023-07-09T03:05:01;13.02;;;8.07;;
72586;SDS011;60621;49.576;11.024;2023-07-09T03:06:02;12.43;;;8.82;;
72586;SDS011;60621;49.576;11.024;2023-07-09T03:07:04;10.95;;;8.20;;
72586;SDS011;60621;49.576;11.024;2023-07-09T03:08:06;11.48;;;8.40;;
72586;SDS011;60621;49.576;11.024;2023-07-09T03:09:08;11.82;;;8.32;;
72586;SDS011;60621;49.576;11.024;2023-07-09T03:10:10;14.27;;;8.38;;
72586;SDS011;60621;49.576;11.024;2023-07-09T03:11:12;11.98;;;7.78;;
72586;SDS011;60621;49.576;11.024;2023-07-09T03:12:15;13.63;;;8.93;;
72586;SDS011;60621;49.576;11.024;2023-07-09T03:13:16;10.73;;;8.52;;
72586;SDS011;60621;49.576;11.024;2023-07-09T03:14:17;11.73;;;7.82;;
72586;SDS011;60621;49.576;11.024;2023-07-09T03:15:19;12.20;;;8.20;;
72586;SDS011;60621;49.576;11.024;2023-07-09T03:16:20;11.63;;;7.95;;
72586;SDS011;60621;49.576;11.024;2023-07-09T03:17:22;11.65;;;8.50;;
72586;SDS011;60621;49.576;11.024;2023-07-09T03:18:23;11.18;;;8.25;;
72586;SDS011;60621;49.576;11.024;2023-07-09T03:19:25;12.27;;;8.25;;
72586;SDS011;60621;49.576;11.024;2023-07-09T03:20:27;11.23;;;8.05;;
72586;SDS011;60621;49.576;11.024;2023-07-09T03:21:28;12.57;;;9.80;;
72586;SDS011;60621;49.576;11.024;2023-07-09T03:22:30;11.90;;;8.07;;
72586;SDS011;60621;49.576;11.024;2023-07-09T03:23:31;11.32;;;8.25;;
72586;SDS011;60621;49.576;11.024;2023-07-09T03:24:33;11.77;;;8.52;;
72586;SDS011;60621;49.576;11.024;2023-07-09T03:25:34;9.90;;;7.85;;
72586;SDS011;60621;49.576;11.024;2023-07-09T03:26:41;11.35;;;8.35;;
72586;SDS011;60621;49.576;11.024;2023-07-09T03:27:42;11.57;;;7.85;;
72586;SDS011;60621;49.576;11.024;2023-07-09T03:28:44;11.05;;;8.00;;
72586;SDS011;60621;49.576;11.024;2023-07-09T03:29:45;13.10;;;9.65;;
72586;SDS011;60621;49.576;11.024;2023-07-09T03:30:48;11.90;;;8.23;;
72586;SDS011;60621;49.576;11.024;2023-07-09T03:32:52;13.15;;;9.55;;
72586;SDS011;60621;49.576;11.024;2023-07-09T03:33:53;11.30;;;7.60;;
72586;SDS011;60621;49.576;11.024;2023-07-09T03:34:55;11.43;;;8.75;;
72586;SDS011;60621;49.576;11.024;2023-07-09T03:35:56;12.35;;;8.80;;
72586;SDS011;60621;49.576;11.024;2023-07-09T03:36:58;11.20;;;8.43;;
72586;SDS011;60621;49.576;11.024;2023-07-09T03:38:00;11.32;;;7.78;;
72586;SDS011;60621;49.576;11.024;2023-07-09T03:39:01;11.13;;;8.15;;
72586;SDS011;60621;49.576;11.024;2023-07-09T03:40:03;12.20;;;8.38;;
72586;SDS011;60621;49.576;11.024;2023-07-09T03:41:06;11.32;;;7.95;;
72586;SDS011;60621;49.576;11.024;2023-07-09T03:42:07;11.77;;;8.80;;
72586;SDS011;60621;49.576;11.024;2023-07-09T03:43:12;11.52;;;8.20;;
72586;SDS011;60621;49.576;11.024;2023-07-09T03:44:13;10.73;;;8.50;;
72586;SDS011;60621;49.576;11.024;2023-07-09T03:45:15;11.32;;;7.60;;
72586;SDS011;60621;49.576;11.024;2023-07-09T03:46:17;12.15;;;8.48;;
72586;SDS011;60621;49.576;11.024;2023-07-09T03:47:18;11.10;;;8.00;;
72586;SDS011;60621;49.576;11.024;2023-07-09T03:48:20;11.18;;;8.02;;
72586;SDS011;60621;49.576;11.024;2023-07-09T03:49:22;11.32;;;8.63;;
72586;SDS011;60621;49.576;11.024;2023-07-09T03:50:23;11.35;;;7.95;;
72586;SDS011;60621;49.576;11.024;2023-07-09T03:51:25;11.75;;;8.50;;
72586;SDS011;60621;49.576;11.024;2023-07-09T03:52:27;11.65;;;7.70;;
72586;SDS011;60621;49.576;11.024;2023-07-09T03:53:28;12.05;;;7.95;;
72586;SDS011;60621;49.576;11.024;2023-07-09T03:54:30;10.82;;;7.78;;
72586;SDS011;60621;49.576;11.024;2023-07-09T03:55:31;10.50;;;7.60;;
72586;SDS011;60621;49.576;11.024;2023-07-09T03:56:33;11.40;;;8.18;;
72586;SDS011;60621;49.576;11.024;2023-07-09T03:57:35;11.07;;;7.72;;
72586;SDS011;60621;49.576;11.024;2023-07-09T03:58:36;10.68;;;7.68;;
72586;SDS011;60621;49.576;11.024;2023-07-09T03:59:38;10.57;;;8.07;;
72586;SDS011;60621;49.576;11.024;2023-07-09T04:01:42;10.98;;;7.82;;
72586;SDS011;60621;49.576;11.024;2023-07-09T04:02:47;10.98;;;7.57;;
72586;SDS011;60621;49.576;11.024;2023-07-09T04:03:49;11.48;;;8.63;;
72586;SDS011;60621;49.576;11.024;2023-07-09T04:04:51;10.88;;;8.30;;
72586;SDS011;60621;49.576;11.024;2023-07-09T04:05:52;11.32;;;8.20;;
72586;SDS011;60621;49.576;11.024;2023-07-09T04:06:54;10.90;;;7.85;;
72586;SDS011;60621;49.576;11.024;2023-07-09T04:07:56;10.70;;;7.85;;
72586;SDS011;60621;49.576;11.024;2023-07-09T04:08:57;12.57;;;8.43;;
72586;SDS011;60621;49.576;11.024;2023-07-09T04:09:58;10.30;;;7.88;;
72586;SDS011;60621;49.576;11.024;2023-07-09T04:11:01;10.40;;;7.85;;
72586;SDS011;60621;49.576;11.024;2023-07-09T04:12:04;11.65;;;8.30;;
72586;SDS011;60621;49.576;11.024;2023-07-09T04:13:06;11.57;;;8.18;;
72586;SDS011;60621;49.576;11.024;2023-07-09T04:14:08;9.68;;;7.72;;
72586;SDS011;60621;49.576;11.024;2023-07-09T04:15:10;13.70;;;8.45;;
72586;SDS011;60621;49.576;11.024;2023-07-09T04:16:13;11.05;;;8.20;;
72586;SDS011;60621;49.576;11.024;2023-07-09T04:17:15;10.80;;;7.88;;
72586;SDS011;60621;49.576;11.024;2023-07-09T04:18:17;11.30;;;8.73;;
72586;SDS011;60621;49.576;11.024;2023-07-09T04:19:18;11.63;;;8.25;;
72586;SDS011;60621;49.576;11.024;2023-07-09T04:20:20;11.75;;;7.97;;
72586;SDS011;60621;49.576;11.024;2023-07-09T04:21:21;11.65;;;7.50;;
72586;SDS011;60621;49.576;11.024;2023-07-09T04:22:23;10.85;;;7.78;;
72586;SDS011;60621;49.576;11.024;2023-07-09T04:23:25;11.40;;;8.25;;
72586;SDS011;60621;49.576;11.024;2023-07-09T04:24:26;11.52;;;7.85;;
72586;SDS011;60621;49.576;11.024;2023-07-09T04:25:28;10.30;;;7.75;;
72586;SDS011;60621;49.576;11.024;2023-07-09T04:26:30;11.05;;;8.43;;
72586;SDS011;60621;49.576;11.024;2023-07-09T04:27:31;11.15;;;7.82;;
72586;SDS011;60621;49.576;11.024;2023-07-09T04:28:33;11.38;;;7.95;;
72586;SDS011;60621;49.576;11.024;2023-07-09T04:29:34;10.57;;;8.52;;
72586;SDS011;60621;49.576;11.024;2023-07-09T04:30:37;11.27;;;7.97;;
72586;SDS011;60621;49.576;11.024;2023-07-09T04:31:38;10.30;;;8.13;;
72586;SDS011;60621;49.576;11.024;2023-07-09T04:32:42;11.27;;;7.78;;
72586;SDS011;60621;49.576;11.024;2023-07-09T04:33:44;10.85;;;8.07;;
72586;SDS011;60621;49.576;11.024;2023-07-09T04:34:46;10.52;;;7.50;;
72586;SDS011;60621;49.576;11.024;2023-07-09T04:35:48;12.00;;;7.85;;
72586;SDS011;60621;49.576;11.024;2023-07-09T04:36:50;9.98;;;7.50;;
72586;SDS011;60621;49.576;11.024;2023-07-09T04:37:52;11.13;;;7.32;;
72586;SDS011;60621;49.576;11.024;2023-07-09T04:38:53;10.95;;;8.05;;
72586;SDS011;60621;49.576;11.024;2023-07-09T04:39:54;11.38;;;7.78;;
72586;SDS011;60621;49.576;11.024;2023-07-09T04:40:56;11.30;;;8.10;;
72586;SDS011;60621;49.576;11.024;2023-07-09T04:41:57;12.07;;;8.20;;
72586;SDS011;60621;49.576;11.024;2023-07-09T04:42:59;10.68;;;7.63;;
72586;SDS011;60621;49.576;11.024;2023-07-09T04:44:00;11.55;;;7.70;;
72586;SDS011;60621;49.576;11.024;2023-07-09T04:45:02;11.88;;;7.57;;
72586;SDS011;60621;49.576;11.024;2023-07-09T04:46:03;12.05;;;8.20;;
72586;SDS011;60621;49.576;11.024;2023-07-09T04:47:05;11.45;;;7.85;;
72586;SDS011;60621;49.576;11.024;2023-07-09T04:48:07;10.75;;;7.55;;
72586;SDS011;60621;49.576;11.024;2023-07-09T04:49:09;10.57;;;7.57;;
72586;SDS011;60621;49.576;11.024;2023-07-09T04:50:13;10.60;;;7.85;;
72586;SDS011;60621;49.576;11.024;2023-07-09T04:51:15;9.82;;;7.10;;
72586;SDS011;60621;49.576;11.024;2023-07-09T04:52:17;9.70;;;7.32;;
72586;SDS011;60621;49.576;11.024;2023-07-09T04:53:18;12.20;;;8.07;;
72586;SDS011;60621;49.576;11.024;2023-07-09T04:54:22;11.07;;;8.13;;
72586;SDS011;60621;49.576;11.024;2023-07-09T04:55:23;10.52;;;7.75;;
72586;SDS011;60621;49.576;11.024;2023-07-09T04:56:25;12.85;;;8.38;;
72586;SDS011;60621;49.576;11.024;2023-07-09T04:57:27;12.18;;;7.95;;
72586;SDS011;60621;49.576;11.024;2023-07-09T04:58:29;11.60;;;7.65;;
72586;SDS011;60621;49.576;11.024;2023-07-09T04:59:31;11.35;;;7.88;;
72586;SDS011;60621;49.576;11.024;2023-07-09T05:00:32;10.40;;;7.72;;
72586;SDS011;60621;49.576;11.024;2023-07-09T05:01:34;9.95;;;7.15;;
72586;SDS011;60621;49.576;11.024;2023-07-09T05:02:36;10.02;;;7.35;;
72586;SDS011;60621;49.576;11.024;2023-07-09T05:03:37;11.73;;;9.05;;
72586;SDS011;60621;49.576;11.024;2023-07-09T05:04:40;10.88;;;7.63;;
72586;SDS011;60621;49.576;11.024;2023-07-09T05:05:44;10.38;;;7.88;;
72586;SDS011;60621;49.576;11.024;2023-07-09T05:06:47;11.05;;;8.27;;
72586;SDS011;60621;49.576;11.024;2023-07-09T05:07:49;10.88;;;7.95;;
72586;SDS011;60621;49.576;11.024;2023-07-09T05:08:51;10.80;;;7.35;;
72586;SDS011;60621;49.576;11.024;2023-07-09T05:09:53;10.32;;;7.80;;
72586;SDS011;60621;49.576;11.024;2023-07-09T05:10:56;10.95;;;8.00;;
72586;SDS011;60621;49.576;11.024;2023-07-09T05:11:59;11.82;;;7.53;;
72586;SDS011;60621;49.576;11.024;2023-07-09T05:13:01;10.00;;;7.00;;
72586;SDS011;60621;49.576;11.024;2023-07-09T05:14:03;10.05;;;8.02;;
72586;SDS011;60621;49.576;11.024;2023-07-09T05:15:05;11.00;;;8.13;;
72586;SDS011;60621;49.576;11.024;2023-07-09T05:16:07;10.40;;;7.45;;
72586;SDS011;60621;49.576;11.024;2023-07-09T05:17:08;9.95;;;7.22;;
72586;SDS011;60621;49.576;11.024;2023-07-09T05:18:10;10.13;;;7.30;;
72586;SDS011;60621;49.576;11.024;2023-07-09T05:19:17;11.63;;;8.25;;
72586;SDS011;60621;49.576;11.024;2023-07-09T05:20:18;11.43;;;7.43;;
72586;SDS011;60621;49.576;11.024;2023-07-09T05:21:20;10.38;;;7.20;;
72586;SDS011;60621;49.576;11.024;2023-07-09T05:22:21;11.75;;;7.55;;
72586;SDS011;60621;49.576;11.024;2023-07-09T05:23:26;11.52;;;7.97;;
72586;SDS011;60621;49.576;11.024;2023-07-09T05:24:27;11.07;;;7.85;;
72586;SDS011;60621;49.576;11.024;2023-07-09T05:25:29;11.38;;;8.25;;
72586;SDS011;60621;49.576;11.024;2023-07-09T05:26:31;12.25;;;8.50;;
72586;SDS011;60621;49.576;11.024;2023-07-09T05:27:32;11.48;;;8.00;;
72586;SDS011;60621;49.576;11.024;2023-07-09T05:28:34;11.30;;;8.25;;
72586;SDS011;60621;49.576;11.024;2023-07-09T05:29:36;12.68;;;7.68;;
72586;SDS011;60621;49.576;11.024;2023-07-09T05:30:40;12.10;;;9.02;;
72586;SDS011;60621;49.576;11.024;2023-07-09T05:31:42;10.75;;;7.72;;
72586;SDS011;60621;49.576;11.024;2023-07-09T05:32:44;10.98;;;7.53;;
72586;SDS011;60621;49.576;11.024;2023-07-09T05:33:45;10.13;;;7.00;;
72586;SDS011;60621;49.576;11.024;2023-07-09T05:34:47;9.63;;;6.75;;
72586;SDS011;60621;49.576;11.024;2023-07-09T05:35:49;11.43;;;7.18;;
72586;SDS011;60621;49.576;11.024;2023-07-09T05:36:50;9.63;;;6.88;;
72586;SDS011;60621;49.576;11.024;2023-07-09T05:37:55;9.57;;;6.82;;
72586;SDS011;60621;49.576;11.024;2023-07-09T05:38:56;9.55;;;6.72;;
72586;SDS011;60621;49.576;11.024;2023-07-09T05:39:58;11.07;;;7.57;;
72586;SDS011;60621;49.576;11.024;2023-07-09T05:41:00;10.77;;;7.22;;
72586;SDS011;60621;49.576;11.024;2023-07-09T05:42:03;11.02;;;7.85;;
72586;SDS011;60621;49.576;11.024;2023-07-09T05:43:05;10.00;;;7.10;;
72586;SDS011;60621;49.576;11.024;2023-07-09T05:44:07;9.50;;;6.57;;
72586;SDS011;60621;49.576;11.024;2023-07-09T05:45:08;10.60;;;7.60;;
72586;SDS011;60621;49.576;11.024;2023-07-09T05:46:11;10.40;;;7.75;;
72586;SDS011;60621;49.576;11.024;2023-07-09T05:47:14;10.35;;;7.10;;
72586;SDS011;60621;49.576;11.024;2023-07-09T05:48:15;9.38;;;6.70;;
72586;SDS011;60621;49.576;11.024;2023-07-09T05:49:17;10.98;;;6.90;;
72586;SDS011;60621;49.576;11.024;2023-07-09T05:50:19;8.23;;;6.00;;
72586;SDS011;60621;49.576;11.024;2023-07-09T05:51:20;10.23;;;6.38;;
72586;SDS011;60621;49.576;11.024;2023-07-09T05:52:23;10.43;;;6.38;;
72586;SDS011;60621;49.576;11.024;2023-07-09T05:53:25;9.68;;;7.00;;
72586;SDS011;60621;49.576;11.024;2023-07-09T05:54:26;9.95;;;6.72;;
72586;SDS011;60621;49.576;11.024;2023-07-09T05:55:28;9.43;;;6.60;;
72586;SDS011;60621;49.576;11.024;2023-07-09T05:56:29;9.82;;;6.55;;
72586;SDS011;60621;49.576;11.024;2023-07-09T05:57:31;10.18;;;7.30;;
72586;SDS011;60621;49.576;11.024;2023-07-09T05:58:32;9.43;;;6.32;;
72586;SDS011;60621;49.576;11.024;2023-07-09T05:59:34;10.27;;;6.55;;
72586;SDS011;60621;49.576;11.024;2023-07-09T06:00:36;10.65;;;6.93;;
72586;SDS011;60621;49.576;11.024;2023-07-09T06:02:40;10.20;;;7.50;;
72586;SDS011;60621;49.576;11.024;2023-07-09T06:03:41;10.00;;;6.78;;
72586;SDS011;60621;49.576;11.024;2023-07-09T06:04:44;10.25;;;7.18;;
72586;SDS011;60621;49.576;11.024;2023-07-09T06:05:46;9.07;;;6.30;;
72586;SDS011;60621;49.576;11.024;2023-07-09T06:06:51;9.43;;;6.07;;
72586;SDS011;60621;49.576;11.024;2023-07-09T06:07:52;10.60;;;7.15;;
72586;SDS011;60621;49.576;11.024;2023-07-09T06:08:55;11.88;;;7.80;;
72586;SDS011;60621;49.576;11.024;2023-07-09T06:09:56;9.05;;;6.22;;
72586;SDS011;60621;49.576;11.024;2023-07-09T06:10:59;10.25;;;6.35;;
72586;SDS011;60621;49.576;11.024;2023-07-09T06:12:03;9.93;;;6.05;;
72586;SDS011;60621;49.576;11.024;2023-07-09T06:13:06;11.27;;;6.72;;
72586;SDS011;60621;49.576;11.024;2023-07-09T06:14:07;8.82;;;5.78;;
72586;SDS011;60621;49.576;11.024;2023-07-09T06:15:09;10.93;;;6.85;;
72586;SDS011;60621;49.576;11.024;2023-07-09T06:16:11;10.40;;;6.32;;
72586;SDS011;60621;49.576;11.024;2023-07-09T06:17:12;10.55;;;6.50;;